• Join FlightAware (Why Join?)
  • Login
  • US Flag 
08:36PM EDT


 

Airport Tracker/Info


-or-


 

Live Flight TrackerFlight Track Log ✈ UAL495 ✈ 24-Apr-2013 ✈ KDEN - KIAD

Flight Track Log - Related Links

Times and Time Zones

All times are in EDT time to prevent confusion due to time zone crossing. See the UAL495 flight status page for this flight to view local times or setup timezone preferences in your user account.

Time Position Orientation Groundspeed Altitude Reporting Facility
EDT Latitude Longitude Course Direction KTS MPH feet Rate Location/Type
01:18PM 39.8167 -104.6500 134° Southeast 189 217 6,700  Level Denver TRACON
01:19PM 39.7667 -104.5833 134° Southeast 256 295 8,700 1,920 Climbing Denver TRACON
01:20PM 39.7631 -104.5233 94° East 279 321 9,900 1,920 Climbing Denver Center
01:21PM 39.7678 -104.4000 87° East 327 376 11,900 1,980 Climbing Denver Center
01:22PM 39.7675 -104.2708 90° East 357 411 14,000 2,400 Climbing Denver Center
01:23PM 39.7656 -104.1336 91° East 376 433 16,900 2,160 Climbing Denver Center
01:24PM 39.7633 -103.9864 91° East 378 435 18,500 1,380 Climbing Denver Center
01:25PM 39.7533 -103.8336 95° East 424 488 19,800 1,380 Climbing Denver Center
01:26PM 39.7361 -103.6675 98° East 424 488 21,400 1,500 Climbing Denver Center
01:27PM 39.7222 -103.5014 96° East 455 524 22,900 1,200 Climbing Denver Center
01:28PM 39.7111 -103.3592 96° East 469 540 24,000 1,260 Climbing Denver Center
01:29PM 39.6933 -103.1536 96° East 488 562 25,600 1,320 Climbing Denver Center
01:30PM 39.6783 -102.9689 96° East 510 587 26,800 1,200 Climbing Denver Center
01:31PM 39.6631 -102.7789 96° East 525 604 28,200 1,260 Climbing Denver Center
01:32PM 39.6442 -102.5578 96° East 535 616 29,500 1,140 Climbing Denver Center
01:33PM 39.6267 -102.3697 97° East 548 631 30,600 720 Climbing Denver Center
01:34PM 39.6072 -102.1464 96° East 557 641 31,000 180 Climbing Denver Center
01:35PM 39.5886 -101.9547 97° East 561 646 31,000  Level Denver Center
01:36PM 39.5717 -101.7322 96° East 558 642 31,000  Level Denver Center
01:37PM 39.5567 -101.5386 96° East 566 651 31,000  Level Denver Center
01:38PM 39.5433 -101.2664 94° East 594 684 31,000  Level Denver Center
01:39PM 39.5406 -101.0600 91° East 601 692 31,000  Level Denver Center
01:40PM 39.5375 -100.8178 91° East 604 695 31,000  Level Denver Center
01:41PM 39.5347 -100.6133 91° East 598 688 31,000  Level Denver Center
01:42PM 39.5300 -100.3747 91° East 597 687 31,000  Level Denver Center
01:44PM 39.5267 -100.1692 91° East 598 688 31,000  Level Denver Center
01:45PM 39.5206 -99.9322 92° East 602 693 31,000  Level Denver Center
01:46PM 39.5156 -99.7169 92° East 602 693 31,000  Level Denver Center
01:47PM 39.5089 -99.4575 92° East 603 694 31,000  Level Denver Center
01:48PM 39.5025 -99.2403 92° East 604 695 31,000  Level Denver Center
01:49PM 39.4967 -99.0222 92° East 607 699 31,000  Level Denver Center
01:50PM 39.4864 -98.7206 92° East 603 694 31,000  Level Denver Center
01:51PM 39.4794 -98.5050 92° East 601 692 31,000  Level Denver Center
01:52PM 39.4717 -98.2897 93° East 601 692 31,000  Level Denver Center
01:54PM 39.4567 -97.8961 93° East 596 686 31,000  Level Kansas City Center
01:55PM 39.4486 -97.6881 93° East 594 684 31,000  Level Kansas City Center
01:56PM 39.4367 -97.4500 94° East 598 688 31,000  Level Kansas City Center
01:57PM 39.4275 -97.2442 93° East 599 689 31,000  Level Kansas City Center
01:58PM 39.4164 -97.0019 93° East 603 694 31,000  Level Kansas City Center
01:59PM 39.4067 -96.7950 93° East 604 695 31,000  Level Kansas City Center
02:00PM 39.3958 -96.5525 93° East 603 694 31,000  Level Kansas City Center
02:01PM 39.3856 -96.3658 94° East 604 695 31,000  Level Kansas City Center
02:02PM 39.3719 -96.1400 94° East 602 693 31,000  Level Kansas City Center
02:03PM 39.3575 -95.8992 94° East 602 693 31,000  Level Kansas City Center
02:04PM 39.3456 -95.6911 94° East 606 697 31,000  Level Kansas City Center
02:05PM 39.3300 -95.4394 94° East 598 688 31,000 480 Level Kansas City Center
02:06PM 39.3344 -95.2247 88° East 600 690 32,100 1,320 Climbing Kansas City Center
02:07PM 39.3519 -95.0392 83° East 577 664 33,700 1,380 Climbing Kansas City Center
02:08PM 39.3672 -94.8119 85° East 566 651 35,000 600 Climbing Kansas City Center
02:09PM 39.3817 -94.6236 84° East 553 636 35,000  Level Kansas City Center
02:11PM 39.4039 -94.3967 83° East 567 652 35,000  Level Kansas City Center
02:12PM 39.4200 -94.2006 84° East 572 658 35,000  Level Kansas City Center
02:13PM 39.4386 -93.9731 84° East 570 656 35,000  Level Kansas City Center
02:14PM 39.4542 -93.7775 84° East 571 657 35,000  Level Kansas City Center
02:15PM 39.4742 -93.5564 83° East 564 649 35,000  Level Kansas City Center
02:16PM 39.4903 -93.3575 84° East 563 648 35,000  Level Kansas City Center
02:17PM 39.5044 -93.1611 85° East 556 640 35,000  Level Kansas City Center
02:18PM 39.5175 -92.9628 85° East 558 642 35,000  Level Kansas City Center
02:19PM 39.5319 -92.7661 84° East 559 643 35,000  Level Kansas City Center
02:20PM 39.5497 -92.5328 84° East 554 638 35,000  Level Kansas City Center
02:21PM 39.5608 -92.3389 86° East 549 632 35,000  Level Kansas City Center
02:22PM 39.5739 -92.1453 85° East 548 631 35,000  Level Kansas City Center
02:23PM 39.5869 -91.9489 85° East 549 632 35,000  Level Kansas City Center
02:24PM 39.6042 -91.7100 85° East 557 641 35,000  Level Kansas City Center
02:25PM 39.6150 -91.5139 86° East 555 639 35,000  Level Kansas City Center
02:26PM 39.6272 -91.3106 85° East 552 635 35,000  Level Kansas City Center
02:27PM 39.6383 -91.1100 86° East 554 638 35,000  Level Kansas City Center
02:28PM 39.6500 -90.9092 86° East 556 640 35,000  Level Kansas City Center
02:29PM 39.6614 -90.7078 86° East 558 642 35,000  Level Kansas City Center
02:30PM 39.6714 -90.5089 86° East 554 638 35,000  Level Kansas City Center
02:31PM 39.6819 -90.3078 86° East 556 640 35,000  Level Kansas City Center
02:32PM 39.6942 -90.0669 86° East 557 641 35,000  Level Kansas City Center
02:33PM 39.7042 -89.8667 86° East 555 639 35,000  Level Kansas City Center
02:34PM 39.7133 -89.6492 87° East 557 641 35,000  Level Kansas City Center
02:35PM 39.7222 -89.4514 87° East 554 638 35,000  Level Kansas City Center
02:36PM 39.7303 -89.2511 87° East 556 640 35,000  Level Kansas City Center
02:38PM 39.7461 -88.8572 87° East 553 636 35,000  Level Indianapolis Center
02:39PM 39.7542 -88.6569 87° East 551 634 35,000  Level Indianapolis Center
02:40PM 39.7597 -88.4589 88° East 550 633 35,000  Level Indianapolis Center
02:41PM 39.7658 -88.2586 88° East 550 633 35,000  Level Indianapolis Center
02:42PM 39.7742 -88.0569 87° East 553 636 35,000  Level Indianapolis Center
02:43PM 39.7797 -87.8564 88° East 553 636 35,000  Level Indianapolis Center
02:44PM 39.7856 -87.6547 88° East 555 639 35,000  Level Indianapolis Center
02:45PM 39.7925 -87.4208 88° East 554 638 35,000  Level Indianapolis Center
02:47PM 39.7975 -87.2189 88° East 555 639 35,000  Level Indianapolis Center
02:48PM 39.8025 -87.0178 88° East 553 636 35,000  Level Indianapolis Center
02:49PM 39.8061 -86.8158 89° East 554 638 35,000  Level Indianapolis Center
02:50PM 39.8100 -86.6147 88° East 553 636 35,000  Level Indianapolis Center
02:51PM 39.8139 -86.4111 89° East 554 638 35,000  Level Indianapolis Center
02:52PM 39.8344 -86.1839 83° East 562 647 35,000  Level Indianapolis Center
02:53PM 39.8525 -85.9956 83° East 561 646 35,000  Level Indianapolis Center
02:54PM 39.8722 -85.7931 83° East 560 644 35,000  Level Indianapolis Center
02:55PM 39.8936 -85.5908 82° East 561 646 35,000  Level Indianapolis Center
02:56PM 39.9172 -85.3564 82° East 558 642 35,000  Level Indianapolis Center
02:57PM 39.9364 -85.1556 83° East 555 639 35,000  Level Indianapolis Center
02:58PM 39.9556 -84.9564 83° East 551 634 35,000 -60 Level Indianapolis Center
02:59PM 39.9736 -84.7658 83° East 546 628 34,900 -60 Descending Indianapolis Center
03:00PM 39.9903 -84.5681 84° East 544 626 34,900  Level Indianapolis Center
03:01PM 40.0083 -84.3711 83° East 541 623 34,900  Level Indianapolis Center
03:02PM 40.0261 -84.1772 83° East 534 615 34,900  Level Indianapolis Center
03:03PM 40.0439 -83.9492 84° East 534 615 34,900  Level Indianapolis Center
03:04PM 40.0611 -83.7525 83° East 537 618 35,000  Climbing Indianapolis Center
03:05PM 40.0764 -83.5531 84° East 540 621 35,000 -60 Level Indianapolis Center
03:06PM 40.0925 -83.3556 84° East 535 616 34,900 -60 Descending Indianapolis Center
03:07PM 40.1081 -83.1578 84° East 536 617 34,900  Level Indianapolis Center
03:08PM 40.1236 -82.9611 84° East 537 618 35,000  Climbing Indianapolis Center
03:09PM 40.1383 -82.7681 84° East 531 611 35,000  Level Indianapolis Center
03:10PM 40.1492 -82.5736 86° East 531 611 35,000 -60 Level Indianapolis Center
03:11PM 40.1375 -82.3867 95° East 513 590 34,900 -60 Descending Indianapolis Center
03:12PM 40.1253 -82.2025 95° East 506 582 34,900  Level Indianapolis Center
03:13PM 40.1100 -82.0183 96° East 506 582 35,000  Climbing Indianapolis Center
03:14PM 40.0956 -81.8053 95° East 503 579 35,000  Level Indianapolis Center
03:15PM 40.0808 -81.6228 96° East 504 580 35,000  Level Indianapolis Center
03:16PM 40.0667 -81.4408 96° East 501 577 35,000  Level Indianapolis Center
03:17PM 40.0525 -81.2586 96° East 502 578 35,000  Level Indianapolis Center
03:19PM 40.0386 -81.0750 96° East 507 583 35,000  Level Indianapolis Center
03:19PM 40.0331 -80.9761 94° East 502 578 35,000  Level Cleveland Center
03:20PM 40.0086 -80.7972 100° East 502 578 35,000  Level Cleveland Center
03:21PM 39.9419 -80.6508 121° Southeast 473 544 35,000  Level Cleveland Center
03:22PM 39.8733 -80.5047 121° Southeast 462 532 35,000  Level Cleveland Center
03:23PM 39.8022 -80.3614 123° Southeast 475 547 35,000  Level Cleveland Center
03:24PM 39.7331 -80.2186 122° Southeast 475 547 35,000 -660 Level Cleveland Center
03:25PM 39.6636 -80.0706 121° Southeast 475 547 33,700 -1,080 Descending Cleveland Center
03:26PM 39.5939 -79.9303 123° Southeast 478 550 32,800 -1,620 Descending Washington Center
03:27PM 39.5411 -79.7708 113° Southeast 473 544 30,400 -2,400 Descending Washington Center
03:28PM 39.5139 -79.5972 101° East 479 551 28,000 -2,100 Descending Washington Center
03:29PM 39.4819 -79.4231 103° East 485 558 26,200 -1,800 Descending Washington Center
03:30PM 39.4497 -79.2547 104° East 485 558 24,400 -1,800 Descending Washington Center
03:31PM 39.4175 -79.0758 103° East 475 547 22,600 -2,160 Descending Washington Center
03:32PM 39.3922 -78.9350 103° East 462 532 20,100 -2,280 Descending Washington Center
03:33PM 39.3650 -78.7914 104° East 430 495 18,100 -2,280 Descending Washington Center
03:34PM 39.3394 -78.6456 103° East 404 465 15,600 -2,160 Descending Washington Center
03:35PM 39.3136 -78.5103 104° East 384 442 13,800 -1,800 Descending Washington Center
03:36PM 39.2897 -78.3806 103° East 377 434 12,100 -1,440 Descending Washington Center
03:37PM 39.2400 -78.2742 121° Southeast 361 415 11,000 -1,080 Descending Washington Center
03:38PM 39.1900 -78.1811 125° Southeast 340 391 10,000 -1,260 Descending Washington Center
03:39PM 39.1567 -78.0811 113° Southeast 321 369 8,500 -1,320 Descending Washington Center
03:40PM 39.1858 -77.9694 71° East 293 337 7,400 -1,020 Descending Washington Center
03:41PM 39.2172 -77.8633 69° East 298 343 6,500 -780 Descending Washington Center
03:42PM 39.2622 -77.7897 52° Northeast 272 313 5,900 -780 Descending Washington Center
03:43PM 39.2764 -77.7017 78° East 253 291 5,000 -480 Descending Washington Center
03:44PM 39.2653 -77.6156 99° East 234 269 5,000  Level Washington Center
03:45PM 39.2500 -77.5167 101° East 235 270 5,000 -240 Level Potomac TRACON
03:46PM 39.2167 -77.4667 131° Southeast 170 196 4,500 -480 Descending Potomac TRACON
03:47PM 39.1667 -77.4500 166° South 161 185 4,100 -600 Descending Potomac TRACON
03:48PM 39.1333 -77.4500 180° South 157 181 3,400 -780 Descending Potomac TRACON
03:49PM 39.0833 -77.4500 180° South 153 176 2,600 -900 Descending Potomac TRACON